Cape Moreton, Australia
Current Conditions -  °F | °C
As of 6:00 PM on Monday 20 Oct 2014 (Local Time) from YBBN Reporting Station
Clear Clear  
Wind Chill: 70°   Ceiling: Unl
Heat Index: 70°   Visibility: 6mi
Dew Point: 55°   Wind: 8mph
Humidity: 60%   Direction: 70°ENE
Pressure: 30.21"   Gusts: NA
Location:  27.03°S, 153.45°E
Report Text: YBBN 200800Z 07007KT CAVOK 21/13 Q1023 NOSIG
Loading
Personal Weather Stations






























Interactive Weather Map
Tropical Storm Tracking
New forecast layout! Learn more

10-Day Weather Forecast

Advertisements
Track Severe Weather on mobile